Time;durP1;ratioP1;P1;durP2;ratioP2;P2;SDS_P1;SDS_P2;PMS_P1;PMS_P2;Temp;Humidity;BMP_temperature;BMP_pressure;BME280_temperature;BME280_humidity;BME280_pressure;Samples;Min_cycle;Max_cycle;Signal;HPM_P1;HPM_P2
2021/05/24 00:00:16;;;;;;;1.30;1.20;;;;;;;13.00;83.66;97968.53;1669830;84;21051;-72
2021/05/24 00:02:45;;;;;;;1.75;1.20;;;;;;;12.96;83.56;97980.25;1695280;84;21062;-73
2021/05/24 00:05:17;;;;;;;1.07;0.98;;;;;;;12.89;83.96;97986.72;1684127;84;21044;-73
2021/05/24 00:07:44;;;;;;;1.40;1.20;;;;;;;12.82;84.30;97990.56;1663742;86;21037;-72
2021/05/24 00:10:21;;;;;;;1.35;1.25;;;;;;;12.74;84.15;97980.23;1678353;84;21147;-72
2021/05/24 00:12:50;;;;;;;2.10;1.40;;;;;;;12.67;86.09;97988.41;1674552;85;21031;-73
2021/05/24 00:15:25;;;;;;;1.60;1.30;;;;;;;12.59;85.31;97996.29;1678578;84;21532;-72
2021/05/24 00:17:52;;;;;;;3.45;1.80;;;;;;;12.49;86.92;97995.30;1688347;84;21019;-72
2021/05/24 00:20:24;;;;;;;2.37;1.27;;;;;;;12.41;84.85;97977.44;1664072;86;21541;-72
2021/05/24 00:22:51;;;;;;;3.83;1.30;;;;;;;12.36;84.75;97984.72;1707956;84;21038;-73
2021/05/24 00:25:19;;;;;;;1.50;1.40;;;;;;;12.31;84.38;97994.20;1707630;83;21106;-73
2021/05/24 00:27:47;;;;;;;2.25;1.70;;;;;;;12.26;84.53;97992.17;1723301;82;21027;-73
2021/05/24 00:30:16;;;;;;;2.72;1.75;;;;;;;12.19;84.71;97996.84;1740480;82;21035;-73
2021/05/24 00:32:43;;;;;;;1.60;1.50;;;;;;;12.12;85.11;97996.64;1735691;82;21047;-73
2021/05/24 00:35:11;;;;;;;2.42;1.60;;;;;;;12.04;85.07;97996.88;1719328;82;21027;-73
2021/05/24 00:37:39;;;;;;;2.47;1.60;;;;;;;11.97;84.91;98001.57;1740352;82;21075;-73
2021/05/24 00:40:09;;;;;;;2.35;1.50;;;;;;;11.89;85.11;98004.47;1721694;81;21023;-74
2021/05/24 00:42:36;;;;;;;1.90;1.60;;;;;;;11.84;85.31;98010.88;1715598;82;21083;-73
2021/05/24 00:45:07;;;;;;;1.87;1.30;;;;;;;11.81;85.53;98006.98;1713937;84;21512;-73
2021/05/24 00:47:37;;;;;;;3.05;1.35;;;;;;;11.77;86.19;98009.34;1714200;84;21079;-73
2021/05/24 00:50:06;;;;;;;4.60;1.40;;;;;;;11.77;86.80;98008.01;1711637;84;21071;-73
2021/05/24 00:52:33;;;;;;;8.90;1.47;;;;;;;11.80;87.81;98017.21;1722572;82;21015;-72
2021/05/24 00:55:00;;;;;;;2.85;1.42;;;;;;;11.82;87.61;98020.67;1740528;81;21045;-72
2021/05/24 00:57:27;;;;;;;2.30;1.30;;;;;;;11.81;87.70;98035.75;1740402;81;21048;-72
2021/05/24 00:59:55;;;;;;;2.35;2.12;;;;;;;11.88;87.54;98042.58;1724233;82;21059;-72
2021/05/24 01:02:22;;;;;;;1.32;1.20;;;;;;;11.96;88.02;98037.00;1710646;82;21034;-72
2021/05/24 01:04:50;;;;;;;1.65;1.40;;;;;;;12.05;87.75;98048.27;1683800;84;21075;-72
2021/05/24 01:07:17;;;;;;;1.47;1.30;;;;;;;12.11;88.42;98048.92;1707838;83;21130;-72
2021/05/24 01:09:43;;;;;;;2.52;1.40;;;;;;;12.15;87.85;98040.38;1707862;84;21532;-72
2021/05/24 01:12:10;;;;;;;3.20;1.72;;;;;;;12.18;88.14;98045.59;1710096;82;21027;-73
2021/05/24 01:14:37;;;;;;;2.92;1.40;;;;;;;12.16;88.34;98046.57;1723933;82;21035;-72
2021/05/24 01:17:06;;;;;;;1.90;1.60;;;;;;;12.16;88.08;98050.08;1707463;84;21067;-73
2021/05/24 01:19:32;;;;;;;5.30;2.00;;;;;;;12.19;88.18;98055.73;1707792;84;21055;-72
2021/05/24 01:21:59;;;;;;;3.75;1.85;;;;;;;12.16;87.94;98059.38;1707806;84;21527;-74
2021/05/24 01:24:26;;;;;;;2.47;2.20;;;;;;;12.15;88.00;98062.96;1711869;82;21106;-74
2021/05/24 01:26:52;;;;;;;2.17;1.98;;;;;;;12.15;87.83;98068.27;1707814;84;21066;-74
2021/05/24 01:29:20;;;;;;;3.20;2.10;;;;;;;12.18;87.46;98069.95;1708036;84;21007;-74
2021/05/24 01:31:50;;;;;;;2.80;2.33;;;;;;;12.14;87.21;98083.81;1708038;84;21031;-74
2021/05/24 01:34:17;;;;;;;4.00;2.80;;;;;;;12.12;87.82;98081.20;1724188;82;21517;-74
2021/05/24 01:36:44;;;;;;;2.37;2.17;;;;;;;12.14;87.87;98084.66;1740617;81;21043;-74
2021/05/24 01:39:12;;;;;;;3.00;2.70;;;;;;;12.14;87.16;98095.77;1740542;81;21544;-73
2021/05/24 01:41:39;;;;;;;4.03;3.02;;;;;;;12.13;87.05;98094.89;1708697;82;21528;-73
2021/05/24 01:44:07;;;;;;;3.20;2.80;;;;;;;12.13;87.09;98104.66;1711214;82;21023;-73
2021/05/24 01:46:33;;;;;;;3.40;3.10;;;;;;;12.14;88.56;98110.37;1713016;83;21055;-73
2021/05/24 01:49:00;;;;;;;4.10;3.70;;;;;;;12.14;87.75;98111.23;1707780;84;21039;-73
2021/05/24 01:51:26;;;;;;;3.83;3.10;;;;;;;12.16;87.54;98120.48;1708074;84;21171;-73
2021/05/24 01:53:53;;;;;;;3.77;3.30;;;;;;;12.19;87.86;98119.51;1707354;82;21520;-74
2021/05/24 01:56:19;;;;;;;4.72;3.25;;;;;;;12.20;89.15;98127.91;1698023;84;21109;-73
2021/05/24 01:58:46;;;;;;;3.92;2.90;;;;;;;12.21;87.67;98128.31;1689515;84;21033;-73
2021/05/24 02:01:14;;;;;;;4.58;2.95;;;;;;;12.24;87.99;98138.37;1689434;85;21582;-73
2021/05/24 02:03:41;;;;;;;3.40;2.47;;;;;;;12.30;87.15;98141.73;1700282;82;21511;-73
2021/05/24 02:06:07;;;;;;;4.03;2.15;;;;;;;12.34;87.17;98147.36;1710717;82;21103;-73
2021/05/24 02:08:35;;;;;;;2.00;1.80;;;;;;;12.36;87.11;98140.19;1707908;84;21070;-73
2021/05/24 02:11:03;;;;;;;3.77;2.30;;;;;;;12.38;87.09;98135.22;1707937;84;21476;-72
2021/05/24 02:13:30;;;;;;;2.92;1.67;;;;;;;12.37;86.52;98141.95;1711106;82;21042;-72
2021/05/24 02:15:57;;;;;;;1.92;1.50;;;;;;;12.37;86.22;98141.95;1714772;81;21023;-73
2021/05/24 02:18:23;;;;;;;2.05;1.67;;;;;;;12.41;85.98;98139.56;1707970;83;21082;-73
2021/05/24 02:20:50;;;;;;;1.32;1.22;;;;;;;12.46;86.34;98148.73;1727495;82;21067;-73
2021/05/24 02:23:17;;;;;;;3.50;2.05;;;;;;;12.43;85.16;98162.99;1740390;81;21047;-74
2021/05/24 02:25:44;;;;;;;2.17;1.50;;;;;;;12.33;84.01;98165.08;1740563;81;21019;-74
2021/05/24 02:28:10;;;;;;;2.37;1.65;;;;;;;12.28;83.78;98165.70;1740570;81;21054;-73
2021/05/24 02:30:37;;;;;;;2.02;1.60;;;;;;;12.23;83.98;98163.21;1726850;81;21500;-74
2021/05/24 02:33:05;;;;;;;1.55;1.40;;;;;;;12.20;83.33;98173.93;1716274;82;21007;-73
2021/05/24 02:35:32;;;;;;;1.87;1.52;;;;;;;12.14;83.12;98186.09;1709822;84;21195;-74
2021/05/24 02:37:59;;;;;;;1.92;1.50;;;;;;;12.09;83.14;98190.22;1708008;84;21083;-73
2021/05/24 02:40:27;;;;;;;1.70;1.50;;;;;;;12.05;83.00;98197.91;1710231;82;21039;-74
2021/05/24 02:42:55;;;;;;;1.60;1.30;;;;;;;11.98;83.20;98194.98;1713977;83;21216;-73
2021/05/24 02:45:22;;;;;;;1.57;1.30;;;;;;;12.00;82.20;98209.10;1720440;83;21186;-74
2021/05/24 02:47:50;;;;;;;2.08;1.20;;;;;;;11.91;82.49;98212.90;1715571;84;21508;-73
2021/05/24 02:50:21;;;;;;;3.85;1.32;;;;;;;11.82;82.33;98216.72;1715479;84;21093;-73
2021/05/24 02:52:48;;;;;;;1.98;1.35;;;;;;;11.72;82.81;98218.77;1715558;84;21142;-73
2021/05/24 02:55:15;;;;;;;2.92;1.60;;;;;;;11.69;82.63;98211.38;1716539;83;21495;-73
2021/05/24 02:57:43;;;;;;;1.62;1.50;;;;;;;11.61;82.85;98213.81;1715168;83;21095;-73
2021/05/24 03:00:11;;;;;;;1.60;1.30;;;;;;;11.59;83.33;98211.64;1727900;83;21062;-73
2021/05/24 03:02:45;;;;;;;2.92;1.47;;;;;;;11.51;83.79;98216.34;1735826;82;21002;-73
2021/05/24 03:05:08;;;;;;;1.70;1.60;;;;;;;11.45;83.87;98221.80;1724617;82;21487;-73
2021/05/24 03:07:34;;;;;;;1.50;1.40;;;;;;;11.38;84.23;98218.45;1714059;83;21382;-73
2021/05/24 03:10:01;;;;;;;1.92;1.20;;;;;;;11.31;84.41;98221.77;1714151;84;21026;-73
2021/05/24 03:12:27;;;;;;;1.62;1.35;;;;;;;11.27;84.75;98232.06;1715439;84;21047;-73
2021/05/24 03:14:54;;;;;;;2.75;1.15;;;;;;;11.18;84.58;98245.11;1717911;83;21035;-73
2021/05/24 03:17:20;;;;;;;2.77;1.27;;;;;;;11.13;84.82;98236.41;1715519;82;21059;-73
2021/05/24 03:19:47;;;;;;;2.62;1.98;;;;;;;11.14;84.69;98243.92;1713929;83;20991;-73
2021/05/24 03:22:13;;;;;;;1.67;1.20;;;;;;;11.16;84.62;98258.00;1715262;84;21086;-73
2021/05/24 03:24:40;;;;;;;3.90;1.17;;;;;;;11.19;84.53;98280.47;1715866;83;21046;-73
2021/05/24 03:27:07;;;;;;;1.00;0.90;;;;;;;11.23;85.16;98278.16;1686637;85;21066;-73
2021/05/24 03:29:33;;;;;;;1.35;1.00;;;;;;;11.28;84.78;98286.86;1686638;85;21050;-73
2021/05/24 03:32:00;;;;;;;2.52;1.20;;;;;;;11.30;85.01;98284.17;1713128;84;21528;-73
2021/05/24 03:34:26;;;;;;;1.65;1.10;;;;;;;11.32;84.76;98286.31;1715341;84;21045;-73
2021/05/24 03:36:53;;;;;;;1.57;1.30;;;;;;;11.37;84.74;98284.39;1720359;83;21011;-73
2021/05/24 03:39:20;;;;;;;1.30;1.10;;;;;;;11.41;84.77;98286.53;1730025;83;20987;-73
2021/05/24 03:41:47;;;;;;;2.35;1.37;;;;;;;11.41;84.79;98288.70;1715252;83;21031;-74
2021/05/24 03:44:13;;;;;;;7.45;3.70;;;;;;;11.40;84.38;98302.02;1707700;83;21047;-73
2021/05/24 03:46:40;;;;;;;2.77;1.50;;;;;;;11.41;84.62;98301.97;1708332;82;21146;-74
2021/05/24 03:49:06;;;;;;;2.17;1.60;;;;;;;11.42;85.29;98314.80;1679513;85;21035;-73
2021/05/24 03:51:33;;;;;;;2.77;1.42;;;;;;;11.30;84.70;98312.02;1679609;85;21599;-73
2021/05/24 03:54:00;;;;;;;1.92;1.50;;;;;;;11.27;85.50;98318.28;1679574;84;21039;-73
2021/05/24 03:56:26;;;;;;;1.95;1.22;;;;;;;11.21;84.37;98324.63;1699359;84;21043;-73
2021/05/24 03:58:53;;;;;;;2.75;1.25;;;;;;;11.21;84.61;98327.27;1709999;82;21170;-73
2021/05/24 04:01:19;;;;;;;1.67;1.32;;;;;;;11.19;84.17;98332.20;1707690;84;21106;-73
2021/05/24 04:03:47;;;;;;;3.45;1.60;;;;;;;11.16;83.89;98324.31;1707739;83;21047;-73
2021/05/24 04:06:15;;;;;;;3.35;1.30;;;;;;;11.15;84.64;98331.42;1707722;84;21134;-74
2021/05/24 04:08:43;;;;;;;1.60;1.45;;;;;;;11.12;84.15;98331.49;1735371;82;21078;-73
2021/05/24 04:11:11;;;;;;;3.45;1.67;;;;;;;11.10;84.67;98328.02;1698392;84;21098;-73
2021/05/24 04:13:39;;;;;;;2.20;1.50;;;;;;;11.08;85.50;98329.39;1709239;82;21008;-73
2021/05/24 04:16:06;;;;;;;3.20;1.62;;;;;;;11.09;84.40;98330.27;1707856;82;21054;-73
2021/05/24 04:18:34;;;;;;;2.60;1.30;;;;;;;11.08;84.50;98331.16;1714074;84;21059;-72
2021/05/24 04:21:03;;;;;;;2.10;1.60;;;;;;;11.08;85.34;98333.80;1714170;84;21082;-73
2021/05/24 04:23:30;;;;;;;1.57;1.22;;;;;;;11.02;86.44;98328.23;1722848;82;21063;-73
2021/05/24 04:25:56;;;;;;;3.45;1.45;;;;;;;10.99;86.04;98349.95;1740466;82;21039;-73
2021/05/24 04:28:23;;;;;;;4.62;1.50;;;;;;;10.99;85.63;98359.23;1719781;81;21055;-73
2021/05/24 04:30:49;;;;;;;3.15;1.45;;;;;;;10.95;85.36;98360.66;1707959;84;21102;-73
2021/05/24 04:33:16;;;;;;;3.67;1.40;;;;;;;10.94;85.36;98366.88;1685060;84;21513;-73
2021/05/24 04:35:43;;;;;;;1.72;1.32;;;;;;;10.99;85.29;98371.17;1705660;84;21058;-74
2021/05/24 04:38:10;;;;;;;2.45;1.60;;;;;;;11.02;85.67;98376.41;1707965;84;21123;-74
2021/05/24 04:40:37;;;;;;;4.30;1.20;;;;;;;11.09;85.36;98381.52;1707793;84;21504;-73
2021/05/24 04:43:03;;;;;;;2.42;1.35;;;;;;;11.22;85.38;98388.70;1715430;82;22093;-73
2021/05/24 04:45:30;;;;;;;1.98;1.20;;;;;;;11.29;84.72;98380.60;1735801;81;21034;-73
2021/05/24 04:47:57;;;;;;;2.83;1.27;;;;;;;11.38;84.04;98391.42;1714670;84;21083;-73
2021/05/24 04:50:23;;;;;;;5.17;1.40;;;;;;;11.45;83.85;98392.55;1714538;83;21079;-74
2021/05/24 04:52:50;;;;;;;3.10;1.50;;;;;;;11.53;83.46;98396.31;1715373;82;21035;-74
2021/05/24 04:55:19;;;;;;;3.42;1.35;;;;;;;11.62;83.30;98402.70;1736819;81;21156;-74
2021/05/24 04:57:45;;;;;;;1.50;1.40;;;;;;;11.72;82.58;98402.45;1718029;83;21157;-74
2021/05/24 05:00:14;;;;;;;3.20;1.50;;;;;;;11.79;81.37;98405.81;1717475;83;21050;-73
2021/05/24 05:02:42;;;;;;;2.67;1.60;;;;;;;11.79;81.20;98411.12;1720307;82;21066;-73
2021/05/24 05:05:10;;;;;;;1.95;1.40;;;;;;;11.77;81.20;98415.14;1722141;82;21516;-74
2021/05/24 05:07:37;;;;;;;1.47;1.37;;;;;;;11.66;80.33;98412.77;1722175;83;21121;-74
2021/05/24 05:10:05;;;;;;;1.70;1.60;;;;;;;11.59;81.01;98422.69;1719278;83;21526;-74
2021/05/24 05:12:32;;;;;;;1.70;1.20;;;;;;;11.63;81.08;98432.80;1719982;82;21086;-73
2021/05/24 05:14:59;;;;;;;2.00;1.75;;;;;;;11.58;81.47;98447.94;1718029;82;21519;-73
2021/05/24 05:17:26;;;;;;;3.45;1.90;;;;;;;11.53;81.14;98445.42;1705073;82;21071;-73
2021/05/24 05:19:54;;;;;;;3.35;1.60;;;;;;;11.61;81.08;98438.13;1703284;84;21058;-73
2021/05/24 05:22:21;;;;;;;5.00;1.55;;;;;;;11.69;81.33;98438.37;1703646;84;20999;-73
2021/05/24 05:24:48;;;;;;;4.22;1.50;;;;;;;11.69;80.92;98451.64;1735081;81;21586;-73
2021/05/24 05:27:14;;;;;;;1.92;1.50;;;;;;;11.68;80.47;98450.80;1707557;83;21066;-73
2021/05/24 05:29:42;;;;;;;2.87;2.05;;;;;;;11.76;80.81;98454.56;1702000;83;21016;-74
2021/05/24 05:32:09;;;;;;;2.10;1.50;;;;;;;11.81;80.71;98459.30;1708387;82;21067;-74
2021/05/24 05:34:35;;;;;;;3.35;1.90;;;;;;;11.92;80.69;98469.61;1748876;82;21082;-72
2021/05/24 05:37:02;;;;;;;2.05;1.50;;;;;;;12.03;80.85;98470.64;1748861;82;21070;-72
2021/05/24 05:39:29;;;;;;;3.42;1.70;;;;;;;12.08;79.47;98472.75;1702944;83;21603;-72
2021/05/24 05:41:55;;;;;;;1.37;1.17;;;;;;;12.04;79.12;98468.39;1704000;82;21027;-71
2021/05/24 05:44:22;;;;;;;3.87;1.50;;;;;;;12.08;78.36;98485.18;1737094;81;21086;-72
2021/05/24 05:46:48;;;;;;;3.50;1.20;;;;;;;12.17;79.10;98486.70;1740520;81;21086;-72
2021/05/24 05:49:15;;;;;;;1.75;1.47;;;;;;;12.21;79.43;98487.88;1705307;82;21051;-73
2021/05/24 05:51:42;;;;;;;2.12;1.32;;;;;;;12.26;79.00;98479.80;1703545;83;21066;-73
2021/05/24 05:54:08;;;;;;;2.12;1.12;;;;;;;12.33;78.91;98477.84;1735162;82;21019;-73
2021/05/24 05:56:35;;;;;;;4.20;1.10;;;;;;;12.40;78.44;98480.27;1723000;82;22270;-73
2021/05/24 05:59:01;;;;;;;2.22;1.22;;;;;;;12.43;77.66;98489.94;1715716;83;21038;-73
2021/05/24 06:01:28;;;;;;;1.52;1.30;;;;;;;12.44;77.61;98482.81;1713243;82;21043;-70
2021/05/24 06:03:55;;;;;;;3.35;1.40;;;;;;;12.50;77.25;98476.02;1708220;82;21027;-71
2021/05/24 06:06:21;;;;;;;2.25;1.42;;;;;;;12.48;76.43;98480.48;1700883;84;21054;-71
2021/05/24 06:08:48;;;;;;;1.75;1.50;;;;;;;12.41;76.04;98475.36;1699222;84;21023;-71
2021/05/24 06:11:15;;;;;;;2.08;1.30;;;;;;;12.44;76.13;98474.84;1704497;82;21051;-71
2021/05/24 06:13:41;;;;;;;2.67;1.35;;;;;;;12.46;76.45;98473.88;1710256;83;21496;-73
2021/05/24 06:16:08;;;;;;;4.45;1.65;;;;;;;12.48;76.33;98471.18;1713577;82;21030;-73
2021/05/24 06:18:34;;;;;;;2.92;1.87;;;;;;;12.46;76.44;98463.25;1704978;81;21039;-73
2021/05/24 06:21:01;;;;;;;3.40;1.47;;;;;;;12.50;76.74;98467.56;1707209;84;21067;-73
2021/05/24 06:23:28;;;;;;;1.50;1.40;;;;;;;12.50;76.08;98472.88;1708006;84;21035;-73
2021/05/24 06:25:54;;;;;;;1.87;1.57;;;;;;;12.56;76.18;98478.48;1715411;82;21488;-73
2021/05/24 06:28:20;;;;;;;4.67;1.30;;;;;;;12.59;76.37;98476.19;1707796;83;21079;-73
2021/05/24 06:30:47;;;;;;;1.37;1.10;;;;;;;12.63;76.61;98473.38;1708013;84;21055;-73
2021/05/24 06:33:14;;;;;;;3.67;1.80;;;;;;;12.64;75.33;98463.17;1707846;84;21007;-73
2021/05/24 06:35:41;;;;;;;3.17;1.37;;;;;;;12.67;75.33;98459.55;1717004;82;21066;-73
2021/05/24 06:38:07;;;;;;;4.10;1.37;;;;;;;12.71;75.36;98447.02;1713956;83;21600;-73
2021/05/24 06:40:33;;;;;;;2.90;1.50;;;;;;;12.63;75.44;98450.77;1708036;82;21091;-73
2021/05/24 06:43:00;;;;;;;1.15;1.05;;;;;;;12.70;75.08;98451.94;1704353;84;21110;-73
2021/05/24 06:45:27;;;;;;;1.70;1.22;;;;;;;12.75;75.43;98452.19;1709272;82;21027;-74
2021/05/24 06:47:53;;;;;;;5.28;1.47;;;;;;;12.84;74.84;98448.83;1713986;82;21071;-72
2021/05/24 06:50:20;;;;;;;1.37;1.20;;;;;;;12.88;74.67;98448.67;1705949;84;21152;-72
2021/05/24 06:52:49;;;;;;;2.62;1.42;;;;;;;12.93;75.15;98445.89;1700756;83;21015;-73
2021/05/24 06:55:16;;;;;;;3.15;2.00;;;;;;;12.99;74.71;98442.17;1706641;82;21058;-73
2021/05/24 06:57:42;;;;;;;2.10;1.27;;;;;;;13.06;74.70;98433.94;1701107;82;21097;-73
2021/05/24 07:00:11;;;;;;;2.62;1.40;;;;;;;13.14;74.00;98422.16;1693112;84;21528;-73
2021/05/24 07:02:42;;;;;;;1.10;1.00;;;;;;;13.20;74.55;98423.27;1689765;84;21525;-73
2021/05/24 07:05:11;;;;;;;2.62;1.30;;;;;;;13.28;74.84;98428.33;1694966;82;21020;-73
2021/05/24 07:07:37;;;;;;;1.17;0.98;;;;;;;13.38;74.49;98440.89;1697538;83;21062;-73
2021/05/24 07:10:07;;;;;;;2.67;1.30;;;;;;;13.46;74.31;98442.36;1691764;84;21023;-72
2021/05/24 07:12:35;;;;;;;2.58;1.40;;;;;;;13.58;73.62;98448.23;1707860;84;21055;-74
2021/05/24 07:15:03;;;;;;;2.15;1.25;;;;;;;13.66;72.89;98445.30;1705526;82;21127;-73
2021/05/24 07:17:31;;;;;;;3.47;1.22;;;;;;;13.72;72.76;98435.76;1713745;84;21097;-73
2021/05/24 07:19:58;;;;;;;2.65;1.02;;;;;;;13.82;71.44;98425.63;1709393;84;21142;-73
2021/05/24 07:22:24;;;;;;;2.45;1.00;;;;;;;13.91;71.09;98438.63;1701780;83;21023;-73
2021/05/24 07:24:53;;;;;;;3.25;1.00;;;;;;;14.00;70.47;98454.77;1697162;82;21023;-73
2021/05/24 07:27:21;;;;;;;2.55;1.02;;;;;;;14.08;70.20;98452.67;1696500;83;21634;-73
2021/05/24 07:29:47;;;;;;;2.55;1.20;;;;;;;14.14;70.40;98454.25;1699196;84;21500;-73
2021/05/24 07:32:14;;;;;;;3.15;1.10;;;;;;;14.25;68.61;98453.86;1699543;83;21034;-74
2021/05/24 07:34:42;;;;;;;2.25;0.80;;;;;;;14.31;66.64;98447.41;1701979;82;21075;-73
2021/05/24 07:37:09;;;;;;;0.88;0.60;;;;;;;14.36;65.65;98441.44;1698783;84;21038;-73
2021/05/24 07:39:36;;;;;;;1.80;0.90;;;;;;;14.44;62.28;98441.14;1704587;83;21078;-73
2021/05/24 07:42:05;;;;;;;3.45;0.72;;;;;;;14.51;65.80;98446.66;1704286;83;21499;-73
2021/05/24 07:44:34;;;;;;;1.87;0.80;;;;;;;14.59;63.35;98463.70;1715252;82;21086;-73
2021/05/24 07:47:03;;;;;;;1.00;0.90;;;;;;;14.60;61.96;98454.77;1737420;82;21003;-73
2021/05/24 07:49:30;;;;;;;1.52;0.98;;;;;;;14.66;62.50;98443.88;1721477;82;21069;-74
2021/05/24 07:51:56;;;;;;;1.02;0.80;;;;;;;14.75;62.53;98462.65;1709526;83;21070;-73
2021/05/24 07:54:22;;;;;;;2.35;0.70;;;;;;;14.81;61.10;98449.09;1702011;82;21063;-73
2021/05/24 07:56:49;;;;;;;2.62;0.80;;;;;;;14.89;59.67;98442.11;1717945;81;21051;-73
2021/05/24 07:59:16;;;;;;;0.40;0.40;;;;;;;14.91;59.78;98439.78;1748077;82;21628;-73
2021/05/24 08:01:43;;;;;;;1.00;0.70;;;;;;;14.91;58.56;98442.45;1724704;82;21038;-73
2021/05/24 08:04:10;;;;;;;1.75;1.27;;;;;;;14.96;59.30;98434.73;1718003;83;21067;-73
2021/05/24 08:06:37;;;;;;;0.90;0.53;;;;;;;14.98;59.79;98424.84;1740884;82;21047;-72
2021/05/24 08:09:06;;;;;;;0.75;0.68;;;;;;;15.01;58.65;98417.61;1739931;82;21149;-73
2021/05/24 08:11:33;;;;;;;0.60;0.60;;;;;;;15.08;59.27;98409.34;1733493;82;21064;-73
2021/05/24 08:14:00;;;;;;;1.50;0.60;;;;;;;15.11;57.95;98410.08;1719147;82;21149;-73
2021/05/24 08:16:27;;;;;;;0.55;0.53;;;;;;;15.17;58.94;98424.49;1724103;82;21019;-73
2021/05/24 08:18:53;;;;;;;1.17;0.68;;;;;;;15.22;59.82;98430.11;1717796;83;21072;-73
2021/05/24 08:21:20;;;;;;;3.70;0.80;;;;;;;15.31;59.87;98435.95;1717881;83;21106;-73
2021/05/24 08:23:47;;;;;;;1.32;0.68;;;;;;;15.39;59.62;98428.07;1718050;82;21035;-73
2021/05/24 08:26:13;;;;;;;1.32;0.82;;;;;;;15.53;60.29;98427.02;1714291;82;21556;-73
2021/05/24 08:28:40;;;;;;;1.20;0.85;;;;;;;15.66;57.96;98423.34;1709685;83;21061;-72
2021/05/24 08:31:08;;;;;;;1.77;0.70;;;;;;;15.76;59.85;98424.28;1710444;83;21118;-74
2021/05/24 08:33:34;;;;;;;1.00;0.62;;;;;;;15.86;59.94;98420.75;1708006;83;21094;-76
2021/05/24 08:36:01;;;;;;;1.30;0.82;;;;;;;15.95;59.48;98413.69;1682969;84;21063;-75
2021/05/24 08:38:27;;;;;;;2.30;0.80;;;;;;;16.07;58.20;98425.64;1717524;82;21007;-74
2021/05/24 08:40:55;;;;;;;2.40;0.80;;;;;;;16.08;56.76;98412.66;1730060;82;21515;-74
2021/05/24 08:43:22;;;;;;;2.00;0.75;;;;;;;16.13;57.60;98412.44;1748021;82;21037;-75
2021/05/24 08:45:48;;;;;;;1.47;1.00;;;;;;;16.26;58.39;98418.09;1728700;81;21000;-75
2021/05/24 08:48:15;;;;;;;1.87;0.65;;;;;;;16.36;58.92;98412.73;1713885;83;21023;-79
2021/05/24 08:50:42;;;;;;;2.87;1.50;;;;;;;16.45;58.80;98397.56;1714079;83;21023;-77
2021/05/24 08:53:11;;;;;;;1.07;0.65;;;;;;;16.56;58.90;98390.38;1737462;82;21083;-74
2021/05/24 08:55:38;;;;;;;1.22;0.60;;;;;;;16.62;58.84;98387.88;1740434;81;21059;-76
2021/05/24 08:58:09;;;;;;;1.25;0.47;;;;;;;16.71;58.91;98388.78;1730607;81;21026;-74
2021/05/24 09:00:36;;;;;;;1.45;0.50;;;;;;;16.78;58.09;98398.72;1697574;84;21019;-73
2021/05/24 09:03:04;;;;;;;3.30;0.80;;;;;;;16.96;58.23;98408.11;1708521;82;20999;-73
2021/05/24 09:05:32;;;;;;;2.05;0.70;;;;;;;17.17;57.13;98417.39;1707055;84;21540;-72
2021/05/24 09:08:04;;;;;;;1.22;0.60;;;;;;;17.32;56.29;98420.66;1701105;84;21536;-73
2021/05/24 09:10:35;;;;;;;3.10;0.55;;;;;;;17.43;52.44;98424.12;1698894;83;21020;-73
2021/05/24 09:13:10;;;;;;;1.37;0.60;;;;;;;17.46;52.36;98410.58;1708089;82;21027;-77
2021/05/24 09:15:41;;;;;;;0.60;0.45;;;;;;;17.52;52.51;98414.77;1713157;84;21003;-78
2021/05/24 09:18:09;;;;;;;2.67;0.78;;;;;;;17.64;51.24;98419.93;1714712;84;21567;-73
2021/05/24 09:20:43;;;;;;;1.98;0.70;;;;;;;17.79;53.62;98415.59;1714693;83;21524;-73
2021/05/24 09:23:32;;;;;;;0.80;0.65;;;;;;;17.89;52.30;98399.41;1706322;82;20999;-81
2021/05/24 09:26:04;;;;;;;2.08;0.75;;;;;;;17.98;51.29;98382.45;1697844;84;21020;-76
2021/05/24 09:28:52;;;;;;;0.60;0.50;;;;;;;18.06;52.13;98385.09;1701627;83;21043;-72
2021/05/24 09:31:32;;;;;;;1.67;0.70;;;;;;;18.24;51.84;98390.45;1692507;82;20992;-76
2021/05/24 09:33:59;;;;;;;1.12;0.80;;;;;;;18.40;52.10;98392.28;1696295;84;21079;-73
2021/05/24 09:36:27;;;;;;;2.00;0.90;;;;;;;18.54;52.08;98400.44;1707604;83;21019;-73
2021/05/24 09:39:08;;;;;;;1.52;0.70;;;;;;;18.66;50.98;98403.38;1707488;84;21067;-73
2021/05/24 09:41:47;;;;;;;0.98;0.78;;;;;;;18.71;51.95;98392.78;1707196;84;21015;-73
2021/05/24 09:44:26;;;;;;;1.20;0.60;;;;;;;18.73;51.19;98387.33;1711927;82;21496;-73
2021/05/24 09:46:54;;;;;;;2.25;0.82;;;;;;;18.83;51.92;98388.99;1719083;83;21079;-73
2021/05/24 09:49:27;;;;;;;1.87;0.70;;;;;;;18.92;51.45;98386.24;1719025;83;21011;-72
2021/05/24 09:51:55;;;;;;;4.78;0.82;;;;;;;19.09;51.67;98378.12;1718794;83;21114;-73
2021/05/24 09:54:23;;;;;;;1.32;1.20;;;;;;;19.26;48.33;98384.30;1719070;83;21058;-73
2021/05/24 09:56:51;;;;;;;2.00;0.90;;;;;;;19.41;50.39;98382.55;1715442;83;21026;-73
2021/05/24 09:59:21;;;;;;;1.22;0.70;;;;;;;19.57;50.20;98366.83;1743813;82;21515;-72
2021/05/24 10:01:54;;;;;;;1.57;1.10;;;;;;;19.60;49.27;98365.31;1686366;85;21030;-73
2021/05/24 10:04:24;;;;;;;1.67;0.80;;;;;;;19.62;47.77;98368.75;1661406;85;21143;-73
2021/05/24 10:06:54;;;;;;;5.12;0.90;;;;;;;19.77;48.83;98369.66;1733327;82;21503;-77
2021/05/24 10:09:20;;;;;;;2.80;1.00;;;;;;;19.98;50.22;98375.56;1726787;81;21492;-76
2021/05/24 10:11:50;;;;;;;2.65;0.80;;;;;;;20.11;49.66;98378.34;1718918;83;21106;-74
2021/05/24 10:14:21;;;;;;;5.60;1.30;;;;;;;20.20;48.51;98376.89;1718976;83;21101;-75
2021/05/24 10:16:52;;;;;;;1.47;0.90;;;;;;;20.40;50.09;98369.37;1718970;83;21031;-74
2021/05/24 10:19:21;;;;;;;2.40;1.00;;;;;;;20.76;49.18;98364.39;1719142;83;21031;-73
2021/05/24 10:21:50;;;;;;;5.42;1.07;;;;;;;20.88;47.36;98373.53;1719717;82;21031;-73
2021/05/24 10:24:21;;;;;;;1.25;1.00;;;;;;;20.79;46.93;98370.44;1715100;84;21062;-75
2021/05/24 10:26:48;;;;;;;4.70;0.95;;;;;;;20.88;47.65;98365.45;1711574;83;21376;-74
2021/05/24 10:29:18;;;;;;;2.27;0.80;;;;;;;20.95;46.86;98354.16;1681182;84;21033;-74
2021/05/24 10:31:46;;;;;;;3.33;1.30;;;;;;;20.92;46.48;98350.81;1699788;84;21452;-73
2021/05/24 10:34:20;;;;;;;3.75;1.30;;;;;;;20.97;46.88;98341.94;1686397;84;21520;-74
2021/05/24 10:37:21;;;;;;;4.20;1.35;;;;;;;20.96;45.95;98349.62;1680453;85;21115;-76
2021/05/24 10:40:04;;;;;;;2.45;1.10;;;;;;;20.97;46.70;98349.52;1685383;84;21111;-77
2021/05/24 10:42:42;;;;;;;2.52;1.45;;;;;;;21.55;46.92;98334.86;1686412;83;21035;-74
2021/05/24 10:45:23;;;;;;;1.72;1.20;;;;;;;22.38;45.26;98323.70;1726271;82;21115;-75
2021/05/24 10:48:02;;;;;;;1.65;0.88;;;;;;;22.86;42.97;98322.90;1704945;82;21294;-74
2021/05/24 10:50:30;;;;;;;12.18;9.13;;;;;;;23.71;42.36;98326.88;1655468;84;21043;-75
2021/05/24 10:53:08;;;;;;;3.05;1.02;;;;;;;24.37;40.69;98326.16;1673925;85;21012;-76
2021/05/24 10:55:44;;;;;;;5.90;4.42;;;;;;;25.00;41.08;98321.94;1674787;85;21578;-78
2021/05/24 10:58:14;;;;;;;4.25;1.17;;;;;;;25.28;36.81;98319.60;1675482;84;21086;-77
2021/05/24 11:00:59;;;;;;;2.27;0.90;;;;;;;25.60;36.58;98320.56;1667130;85;21174;-78
2021/05/24 11:03:24;;;;;;;1.27;1.12;;;;;;;25.35;38.00;98326.72;1679509;85;21663;-78
2021/05/24 11:06:17;;;;;;;2.95;1.15;;;;;;;25.36;37.23;98324.87;1665493;85;21059;-79
2021/05/24 11:09:05;;;;;;;1.30;1.10;;;;;;;25.76;38.02;98316.02;1679593;85;21071;-79
2021/05/24 11:11:39;;;;;;;3.37;0.95;;;;;;;25.96;35.88;98311.52;1676810;85;21537;-77
2021/05/24 11:14:08;;;;;;;3.70;1.10;;;;;;;26.87;35.85;98312.50;1679985;85;21080;-77
2021/05/24 11:16:37;;;;;;;1.70;0.95;;;;;;;27.30;33.89;98320.41;1693691;84;21099;-79
2021/05/24 11:19:11;;;;;;;3.42;1.17;;;;;;;27.08;33.89;98302.53;1669184;85;21071;-77
2021/05/24 11:21:40;;;;;;;2.15;1.02;;;;;;;27.15;33.63;98305.89;1680071;85;21083;-79
2021/05/24 11:24:33;;;;;;;3.47;0.95;;;;;;;27.40;32.79;98293.20;1679732;85;21169;-77
2021/05/24 11:27:11;;;;;;;4.58;1.07;;;;;;;27.60;32.74;98289.11;1678289;85;21096;-77
2021/05/24 11:29:43;;;;;;;2.85;0.93;;;;;;;27.74;32.66;98296.77;1675112;85;21553;-75
2021/05/24 11:32:27;;;;;;;1.75;1.02;;;;;;;27.21;33.20;98305.82;1670385;84;21083;-78
2021/05/24 11:34:55;;;;;;;3.37;1.07;;;;;;;27.74;33.23;98298.66;1703028;84;21591;-78
2021/05/24 11:37:44;;;;;;;3.80;1.17;;;;;;;28.48;31.33;98291.95;1680727;84;21037;-81
2021/05/24 11:40:17;;;;;;;3.42;1.40;;;;;;;28.78;31.62;98281.72;1703480;82;21051;-80